sensor_id;sensor_type;location;lat;lon;timestamp;P1;durP1;ratioP1;P2;durP2;ratioP2
7493;SDS011;3788;49.902;8.590;2022-07-03T00:01:53;1.43;;;1.33;;
7493;SDS011;3788;49.902;8.590;2022-07-03T00:04:19;1.50;;;1.40;;
7493;SDS011;3788;49.902;8.590;2022-07-03T00:06:46;1.67;;;1.47;;
7493;SDS011;3788;49.902;8.590;2022-07-03T00:09:13;1.77;;;1.50;;
7493;SDS011;3788;49.902;8.590;2022-07-03T00:11:43;1.40;;;1.30;;
7493;SDS011;3788;49.902;8.590;2022-07-03T00:14:09;1.37;;;1.27;;
7493;SDS011;3788;49.902;8.590;2022-07-03T00:16:36;1.30;;;1.20;;
7493;SDS011;3788;49.902;8.590;2022-07-03T00:19:03;1.97;;;1.70;;
7493;SDS011;3788;49.902;8.590;2022-07-03T00:21:31;1.80;;;1.70;;
7493;SDS011;3788;49.902;8.590;2022-07-03T00:24:02;1.53;;;1.43;;
7493;SDS011;3788;49.902;8.590;2022-07-03T00:26:32;1.57;;;1.30;;
7493;SDS011;3788;49.902;8.590;2022-07-03T00:29:03;1.60;;;1.50;;
7493;SDS011;3788;49.902;8.590;2022-07-03T00:31:32;1.67;;;1.40;;
7493;SDS011;3788;49.902;8.590;2022-07-03T00:34:00;1.27;;;1.13;;
7493;SDS011;3788;49.902;8.590;2022-07-03T00:36:29;1.33;;;1.20;;
7493;SDS011;3788;49.902;8.590;2022-07-03T00:39:00;1.63;;;1.53;;
7493;SDS011;3788;49.902;8.590;2022-07-03T00:41:27;2.27;;;1.37;;
7493;SDS011;3788;49.902;8.590;2022-07-03T00:43:55;1.60;;;1.50;;
7493;SDS011;3788;49.902;8.590;2022-07-03T00:46:24;2.53;;;1.37;;
7493;SDS011;3788;49.902;8.590;2022-07-03T00:48:53;1.30;;;1.20;;
7493;SDS011;3788;49.902;8.590;2022-07-03T00:51:22;1.53;;;1.43;;
7493;SDS011;3788;49.902;8.590;2022-07-03T00:53:50;1.30;;;1.30;;
7493;SDS011;3788;49.902;8.590;2022-07-03T00:56:19;1.77;;;1.30;;
7493;SDS011;3788;49.902;8.590;2022-07-03T00:58:49;1.13;;;1.10;;
7493;SDS011;3788;49.902;8.590;2022-07-03T01:01:19;1.10;;;1.10;;
7493;SDS011;3788;49.902;8.590;2022-07-03T01:03:48;2.20;;;1.20;;
7493;SDS011;3788;49.902;8.590;2022-07-03T01:06:26;1.40;;;1.30;;
7493;SDS011;3788;49.902;8.590;2022-07-03T01:08:59;2.53;;;1.40;;
7493;SDS011;3788;49.902;8.590;2022-07-03T01:11:31;2.90;;;1.40;;
7493;SDS011;3788;49.902;8.590;2022-07-03T01:14:05;1.40;;;1.30;;
7493;SDS011;3788;49.902;8.590;2022-07-03T01:16:41;1.40;;;1.30;;
7493;SDS011;3788;49.902;8.590;2022-07-03T01:19:18;3.70;;;1.03;;
7493;SDS011;3788;49.902;8.590;2022-07-03T01:21:57;1.60;;;1.50;;
7493;SDS011;3788;49.902;8.590;2022-07-03T01:24:42;1.30;;;1.20;;
7493;SDS011;3788;49.902;8.590;2022-07-03T01:27:21;1.13;;;1.13;;
7493;SDS011;3788;49.902;8.590;2022-07-03T01:29:56;1.47;;;1.30;;
7493;SDS011;3788;49.902;8.590;2022-07-03T01:32:31;1.40;;;1.30;;
7493;SDS011;3788;49.902;8.590;2022-07-03T01:35:00;1.40;;;1.30;;
7493;SDS011;3788;49.902;8.590;2022-07-03T01:37:29;1.30;;;1.20;;
7493;SDS011;3788;49.902;8.590;2022-07-03T01:39:59;1.40;;;1.30;;
7493;SDS011;3788;49.902;8.590;2022-07-03T01:42:30;2.27;;;1.40;;
7493;SDS011;3788;49.902;8.590;2022-07-03T01:44:59;2.20;;;1.37;;
7493;SDS011;3788;49.902;8.590;2022-07-03T01:47:26;1.53;;;1.33;;
7493;SDS011;3788;49.902;8.590;2022-07-03T01:49:55;1.60;;;1.50;;
7493;SDS011;3788;49.902;8.590;2022-07-03T01:52:23;1.30;;;1.20;;
7493;SDS011;3788;49.902;8.590;2022-07-03T01:54:51;2.47;;;1.40;;
7493;SDS011;3788;49.902;8.590;2022-07-03T01:57:20;2.70;;;1.13;;
7493;SDS011;3788;49.902;8.590;2022-07-03T01:59:51;1.77;;;1.67;;
7493;SDS011;3788;49.902;8.590;2022-07-03T02:02:19;1.23;;;1.13;;
7493;SDS011;3788;49.902;8.590;2022-07-03T02:04:53;2.10;;;1.20;;
7493;SDS011;3788;49.902;8.590;2022-07-03T02:07:27;1.40;;;1.30;;
7493;SDS011;3788;49.902;8.590;2022-07-03T02:10:02;3.43;;;1.40;;
7493;SDS011;3788;49.902;8.590;2022-07-03T02:12:38;1.40;;;1.30;;
7493;SDS011;3788;49.902;8.590;2022-07-03T02:15:08;1.60;;;1.37;;
7493;SDS011;3788;49.902;8.590;2022-07-03T02:17:36;1.50;;;1.40;;
7493;SDS011;3788;49.902;8.590;2022-07-03T02:20:05;2.63;;;1.93;;
7493;SDS011;3788;49.902;8.590;2022-07-03T02:22:34;3.27;;;1.50;;
7493;SDS011;3788;49.902;8.590;2022-07-03T02:25:05;2.50;;;1.87;;
7493;SDS011;3788;49.902;8.590;2022-07-03T02:27:38;1.50;;;1.40;;
7493;SDS011;3788;49.902;8.590;2022-07-03T02:30:11;1.40;;;1.30;;
7493;SDS011;3788;49.902;8.590;2022-07-03T02:32:40;1.40;;;1.30;;
7493;SDS011;3788;49.902;8.590;2022-07-03T02:35:11;1.30;;;1.20;;
7493;SDS011;3788;49.902;8.590;2022-07-03T02:37:43;1.80;;;1.67;;
7493;SDS011;3788;49.902;8.590;2022-07-03T02:40:22;1.33;;;1.23;;
7493;SDS011;3788;49.902;8.590;2022-07-03T02:42:56;1.30;;;1.20;;
7493;SDS011;3788;49.902;8.590;2022-07-03T02:45:32;1.37;;;1.27;;
7493;SDS011;3788;49.902;8.590;2022-07-03T02:48:07;1.50;;;1.40;;
7493;SDS011;3788;49.902;8.590;2022-07-03T02:50:42;2.07;;;1.70;;
7493;SDS011;3788;49.902;8.590;2022-07-03T02:53:15;1.50;;;1.40;;
7493;SDS011;3788;49.902;8.590;2022-07-03T02:55:50;1.80;;;1.67;;
7493;SDS011;3788;49.902;8.590;2022-07-03T02:58:27;1.53;;;1.43;;
7493;SDS011;3788;49.902;8.590;2022-07-03T03:01:08;1.60;;;1.47;;
7493;SDS011;3788;49.902;8.590;2022-07-03T03:03:37;1.43;;;1.33;;
7493;SDS011;3788;49.902;8.590;2022-07-03T03:06:09;1.80;;;1.40;;
7493;SDS011;3788;49.902;8.590;2022-07-03T03:08:42;1.50;;;1.40;;
7493;SDS011;3788;49.902;8.590;2022-07-03T03:11:14;2.40;;;1.40;;
7493;SDS011;3788;49.902;8.590;2022-07-03T03:13:50;1.60;;;1.47;;
7493;SDS011;3788;49.902;8.590;2022-07-03T03:16:22;1.73;;;1.63;;
7493;SDS011;3788;49.902;8.590;2022-07-03T03:18:49;2.43;;;1.27;;
7493;SDS011;3788;49.902;8.590;2022-07-03T03:21:16;2.40;;;1.27;;
7493;SDS011;3788;49.902;8.590;2022-07-03T03:23:45;1.53;;;1.30;;
7493;SDS011;3788;49.902;8.590;2022-07-03T03:26:13;1.50;;;1.40;;
7493;SDS011;3788;49.902;8.590;2022-07-03T03:28:41;1.93;;;1.70;;
7493;SDS011;3788;49.902;8.590;2022-07-03T03:31:07;1.57;;;1.40;;
7493;SDS011;3788;49.902;8.590;2022-07-03T03:33:40;2.10;;;1.70;;
7493;SDS011;3788;49.902;8.590;2022-07-03T03:36:09;1.60;;;1.50;;
7493;SDS011;3788;49.902;8.590;2022-07-03T03:38:36;1.87;;;1.67;;
7493;SDS011;3788;49.902;8.590;2022-07-03T03:41:04;2.77;;;1.37;;
7493;SDS011;3788;49.902;8.590;2022-07-03T03:43:31;1.80;;;1.30;;
7493;SDS011;3788;49.902;8.590;2022-07-03T03:45:58;1.57;;;1.30;;
7493;SDS011;3788;49.902;8.590;2022-07-03T03:48:26;1.53;;;1.43;;
7493;SDS011;3788;49.902;8.590;2022-07-03T03:50:55;2.80;;;1.70;;
7493;SDS011;3788;49.902;8.590;2022-07-03T03:53:22;1.30;;;1.20;;
7493;SDS011;3788;49.902;8.590;2022-07-03T03:55:54;1.70;;;1.47;;
7493;SDS011;3788;49.902;8.590;2022-07-03T03:58:25;1.40;;;1.30;;
7493;SDS011;3788;49.902;8.590;2022-07-03T04:00:51;2.17;;;1.40;;
7493;SDS011;3788;49.902;8.590;2022-07-03T04:03:19;1.50;;;1.40;;
7493;SDS011;3788;49.902;8.590;2022-07-03T04:05:45;1.20;;;1.10;;
7493;SDS011;3788;49.902;8.590;2022-07-03T04:08:13;1.40;;;1.30;;
7493;SDS011;3788;49.902;8.590;2022-07-03T04:10:40;2.60;;;1.60;;
7493;SDS011;3788;49.902;8.590;2022-07-03T04:13:07;1.60;;;1.50;;
7493;SDS011;3788;49.902;8.590;2022-07-03T04:15:34;1.60;;;1.50;;
7493;SDS011;3788;49.902;8.590;2022-07-03T04:18:00;1.60;;;1.50;;
7493;SDS011;3788;49.902;8.590;2022-07-03T04:20:27;1.70;;;1.60;;
7493;SDS011;3788;49.902;8.590;2022-07-03T04:22:55;2.90;;;1.57;;
7493;SDS011;3788;49.902;8.590;2022-07-03T04:25:23;2.03;;;1.83;;
7493;SDS011;3788;49.902;8.590;2022-07-03T04:27:50;2.00;;;1.70;;
7493;SDS011;3788;49.902;8.590;2022-07-03T04:30:17;2.50;;;2.17;;
7493;SDS011;3788;49.902;8.590;2022-07-03T04:32:44;1.60;;;1.50;;
7493;SDS011;3788;49.902;8.590;2022-07-03T04:35:11;3.00;;;1.80;;
7493;SDS011;3788;49.902;8.590;2022-07-03T04:37:38;1.70;;;1.60;;
7493;SDS011;3788;49.902;8.590;2022-07-03T04:40:05;1.83;;;1.73;;
7493;SDS011;3788;49.902;8.590;2022-07-03T04:42:34;2.43;;;1.90;;
7493;SDS011;3788;49.902;8.590;2022-07-03T04:45:01;2.00;;;1.90;;
7493;SDS011;3788;49.902;8.590;2022-07-03T04:47:28;1.77;;;1.67;;
7493;SDS011;3788;49.902;8.590;2022-07-03T04:49:54;1.60;;;1.50;;
7493;SDS011;3788;49.902;8.590;2022-07-03T04:52:21;1.73;;;1.63;;
7493;SDS011;3788;49.902;8.590;2022-07-03T04:54:48;2.10;;;1.90;;
7493;SDS011;3788;49.902;8.590;2022-07-03T04:57:15;1.57;;;1.47;;
7493;SDS011;3788;49.902;8.590;2022-07-03T04:59:43;1.73;;;1.63;;
7493;SDS011;3788;49.902;8.590;2022-07-03T05:02:11;2.20;;;2.00;;
7493;SDS011;3788;49.902;8.590;2022-07-03T05:04:38;1.77;;;1.67;;
7493;SDS011;3788;49.902;8.590;2022-07-03T05:07:04;2.17;;;1.97;;
7493;SDS011;3788;49.902;8.590;2022-07-03T05:09:31;1.80;;;1.70;;
7493;SDS011;3788;49.902;8.590;2022-07-03T05:11:58;2.07;;;1.80;;
7493;SDS011;3788;49.902;8.590;2022-07-03T05:14:24;2.00;;;1.90;;
7493;SDS011;3788;49.902;8.590;2022-07-03T05:16:52;1.80;;;1.70;;
7493;SDS011;3788;49.902;8.590;2022-07-03T05:19:19;4.30;;;1.93;;
7493;SDS011;3788;49.902;8.590;2022-07-03T05:21:46;2.77;;;1.77;;
7493;SDS011;3788;49.902;8.590;2022-07-03T05:24:12;2.00;;;1.87;;
7493;SDS011;3788;49.902;8.590;2022-07-03T05:26:39;2.13;;;1.93;;
7493;SDS011;3788;49.902;8.590;2022-07-03T05:29:06;3.03;;;2.20;;
7493;SDS011;3788;49.902;8.590;2022-07-03T05:31:33;2.20;;;2.10;;
7493;SDS011;3788;49.902;8.590;2022-07-03T05:34:01;2.43;;;2.23;;
7493;SDS011;3788;49.902;8.590;2022-07-03T05:36:27;2.37;;;2.17;;
7493;SDS011;3788;49.902;8.590;2022-07-03T05:38:54;2.63;;;2.43;;
7493;SDS011;3788;49.902;8.590;2022-07-03T05:41:38;2.60;;;2.40;;
7493;SDS011;3788;49.902;8.590;2022-07-03T05:44:05;2.57;;;2.37;;
7493;SDS011;3788;49.902;8.590;2022-07-03T05:46:32;2.40;;;2.13;;
7493;SDS011;3788;49.902;8.590;2022-07-03T05:48:58;2.30;;;2.20;;
7493;SDS011;3788;49.902;8.590;2022-07-03T05:51:26;2.43;;;1.87;;
7493;SDS011;3788;49.902;8.590;2022-07-03T05:53:53;2.23;;;2.00;;
7493;SDS011;3788;49.902;8.590;2022-07-03T05:56:19;2.43;;;2.23;;
7493;SDS011;3788;49.902;8.590;2022-07-03T05:58:46;3.83;;;2.13;;
7493;SDS011;3788;49.902;8.590;2022-07-03T06:01:13;2.43;;;1.87;;
7493;SDS011;3788;49.902;8.590;2022-07-03T06:03:39;1.80;;;1.70;;
7493;SDS011;3788;49.902;8.590;2022-07-03T06:06:08;2.23;;;1.93;;
7493;SDS011;3788;49.902;8.590;2022-07-03T06:08:35;2.17;;;1.97;;
7493;SDS011;3788;49.902;8.590;2022-07-03T06:11:02;2.80;;;1.90;;
7493;SDS011;3788;49.902;8.590;2022-07-03T06:13:28;2.97;;;1.60;;
7493;SDS011;3788;49.902;8.590;2022-07-03T06:15:55;2.37;;;1.50;;
7493;SDS011;3788;49.902;8.590;2022-07-03T06:18:22;3.27;;;2.00;;
7493;SDS011;3788;49.902;8.590;2022-07-03T06:20:49;1.50;;;1.40;;
7493;SDS011;3788;49.902;8.590;2022-07-03T06:23:17;2.03;;;1.70;;
7493;SDS011;3788;49.902;8.590;2022-07-03T06:25:43;2.73;;;2.07;;
7493;SDS011;3788;49.902;8.590;2022-07-03T06:28:10;2.00;;;1.80;;
7493;SDS011;3788;49.902;8.590;2022-07-03T06:30:36;2.07;;;1.57;;
7493;SDS011;3788;49.902;8.590;2022-07-03T06:33:03;1.87;;;1.50;;
7493;SDS011;3788;49.902;8.590;2022-07-03T06:35:30;1.57;;;1.47;;
7493;SDS011;3788;49.902;8.590;2022-07-03T06:38:00;2.70;;;1.80;;
7493;SDS011;3788;49.902;8.590;2022-07-03T06:40:28;1.70;;;1.40;;
7493;SDS011;3788;49.902;8.590;2022-07-03T06:42:55;1.50;;;1.40;;
7493;SDS011;3788;49.902;8.590;2022-07-03T06:45:21;2.37;;;1.53;;
7493;SDS011;3788;49.902;8.590;2022-07-03T06:47:48;1.87;;;1.60;;
7493;SDS011;3788;49.902;8.590;2022-07-03T06:50:15;2.93;;;1.70;;
7493;SDS011;3788;49.902;8.590;2022-07-03T06:52:42;1.90;;;1.37;;
7493;SDS011;3788;49.902;8.590;2022-07-03T06:55:08;1.40;;;1.30;;
7493;SDS011;3788;49.902;8.590;2022-07-03T06:57:39;1.43;;;1.33;;
7493;SDS011;3788;49.902;8.590;2022-07-03T07:00:07;1.50;;;1.30;;
7493;SDS011;3788;49.902;8.590;2022-07-03T07:02:34;1.53;;;1.43;;
7493;SDS011;3788;49.902;8.590;2022-07-03T07:05:01;1.60;;;1.50;;
7493;SDS011;3788;49.902;8.590;2022-07-03T07:07:28;1.10;;;1.07;;
7493;SDS011;3788;49.902;8.590;2022-07-03T07:09:54;1.10;;;1.10;;
7493;SDS011;3788;49.902;8.590;2022-07-03T07:12:21;1.30;;;1.20;;
7493;SDS011;3788;49.902;8.590;2022-07-03T07:14:49;1.40;;;1.30;;
7493;SDS011;3788;49.902;8.590;2022-07-03T07:17:16;1.30;;;1.20;;
7493;SDS011;3788;49.902;8.590;2022-07-03T07:19:43;1.53;;;1.10;;
7493;SDS011;3788;49.902;8.590;2022-07-03T07:22:09;2.03;;;1.57;;
7493;SDS011;3788;49.902;8.590;2022-07-03T07:24:36;1.50;;;1.40;;
7493;SDS011;3788;49.902;8.590;2022-07-03T07:27:03;1.47;;;1.37;;
7493;SDS011;3788;49.902;8.590;2022-07-03T07:29:30;1.60;;;1.20;;
7493;SDS011;3788;49.902;8.590;2022-07-03T07:31:58;1.47;;;1.37;;
7493;SDS011;3788;49.902;8.590;2022-07-03T07:34:25;1.73;;;1.40;;
7493;SDS011;3788;49.902;8.590;2022-07-03T07:36:51;1.43;;;1.30;;
7493;SDS011;3788;49.902;8.590;2022-07-03T07:39:18;1.03;;;1.03;;
7493;SDS011;3788;49.902;8.590;2022-07-03T07:41:45;3.40;;;1.20;;
7493;SDS011;3788;49.902;8.590;2022-07-03T07:44:12;2.60;;;1.40;;
7493;SDS011;3788;49.902;8.590;2022-07-03T07:46:39;1.20;;;1.10;;
7493;SDS011;3788;49.902;8.590;2022-07-03T07:49:07;1.73;;;1.10;;
7493;SDS011;3788;49.902;8.590;2022-07-03T07:51:34;1.70;;;1.40;;
7493;SDS011;3788;49.902;8.590;2022-07-03T07:54:01;2.87;;;1.30;;
7493;SDS011;3788;49.902;8.590;2022-07-03T07:56:27;1.27;;;1.13;;
7493;SDS011;3788;49.902;8.590;2022-07-03T07:58:54;1.97;;;1.40;;
7493;SDS011;3788;49.902;8.590;2022-07-03T08:01:21;1.30;;;1.20;;
7493;SDS011;3788;49.902;8.590;2022-07-03T08:04:07;1.47;;;1.40;;
7493;SDS011;3788;49.902;8.590;2022-07-03T08:06:51;1.35;;;1.10;;
7493;SDS011;3788;49.902;8.590;2022-07-03T08:09:17;1.20;;;1.20;;
7493;SDS011;3788;49.902;8.590;2022-07-03T08:11:44;1.60;;;1.30;;
7493;SDS011;3788;49.902;8.590;2022-07-03T08:14:11;1.33;;;1.23;;
7493;SDS011;3788;49.902;8.590;2022-07-03T08:16:38;1.27;;;1.08;;
7493;SDS011;3788;49.902;8.590;2022-07-03T08:19:07;1.20;;;1.10;;
7493;SDS011;3788;49.902;8.590;2022-07-03T08:21:34;2.72;;;1.17;;
7493;SDS011;3788;49.902;8.590;2022-07-03T08:24:01;2.38;;;1.20;;
7493;SDS011;3788;49.902;8.590;2022-07-03T08:26:27;0.95;;;0.95;;
7493;SDS011;3788;49.902;8.590;2022-07-03T08:28:54;1.20;;;1.10;;
7493;SDS011;3788;49.902;8.590;2022-07-03T08:31:21;1.00;;;1.00;;
7493;SDS011;3788;49.902;8.590;2022-07-03T08:33:48;2.05;;;1.30;;
7493;SDS011;3788;49.902;8.590;2022-07-03T08:36:16;1.25;;;1.20;;
7493;SDS011;3788;49.902;8.590;2022-07-03T08:38:45;1.45;;;1.20;;
7493;SDS011;3788;49.902;8.590;2022-07-03T08:41:12;1.27;;;1.20;;
7493;SDS011;3788;49.902;8.590;2022-07-03T08:43:41;1.25;;;1.23;;
7493;SDS011;3788;49.902;8.590;2022-07-03T08:46:09;1.13;;;1.13;;
7493;SDS011;3788;49.902;8.590;2022-07-03T08:48:37;1.42;;;1.20;;
7493;SDS011;3788;49.902;8.590;2022-07-03T08:51:05;1.25;;;1.15;;
7493;SDS011;3788;49.902;8.590;2022-07-03T08:53:34;1.15;;;1.15;;
7493;SDS011;3788;49.902;8.590;2022-07-03T08:56:01;1.00;;;1.00;;
7493;SDS011;3788;49.902;8.590;2022-07-03T08:58:30;1.45;;;1.20;;
7493;SDS011;3788;49.902;8.590;2022-07-03T09:00:57;1.17;;;1.17;;
7493;SDS011;3788;49.902;8.590;2022-07-03T09:03:24;1.48;;;1.38;;
7493;SDS011;3788;49.902;8.590;2022-07-03T09:05:52;1.13;;;1.08;;
7493;SDS011;3788;49.902;8.590;2022-07-03T09:08:19;1.15;;;1.15;;
7493;SDS011;3788;49.902;8.590;2022-07-03T09:10:48;1.38;;;1.30;;
7493;SDS011;3788;49.902;8.590;2022-07-03T09:13:18;1.33;;;1.23;;
7493;SDS011;3788;49.902;8.590;2022-07-03T09:15:44;1.60;;;1.13;;
7493;SDS011;3788;49.902;8.590;2022-07-03T09:18:11;1.65;;;1.23;;
7493;SDS011;3788;49.902;8.590;2022-07-03T09:20:38;1.17;;;1.15;;
7493;SDS011;3788;49.902;8.590;2022-07-03T09:23:13;1.20;;;1.02;;
7493;SDS011;3788;49.902;8.590;2022-07-03T09:25:55;1.38;;;1.05;;
7493;SDS011;3788;49.902;8.590;2022-07-03T09:28:23;1.52;;;1.25;;
7493;SDS011;3788;49.902;8.590;2022-07-03T09:30:56;1.30;;;1.20;;
7493;SDS011;3788;49.902;8.590;2022-07-03T09:33:24;1.35;;;1.10;;
7493;SDS011;3788;49.902;8.590;2022-07-03T09:35:52;0.80;;;0.80;;
7493;SDS011;3788;49.902;8.590;2022-07-03T09:38:20;0.90;;;0.90;;
7493;SDS011;3788;49.902;8.590;2022-07-03T09:40:48;1.13;;;0.93;;
7493;SDS011;3788;49.902;8.590;2022-07-03T09:43:21;1.20;;;1.05;;
7493;SDS011;3788;49.902;8.590;2022-07-03T09:45:50;0.90;;;0.90;;
7493;SDS011;3788;49.902;8.590;2022-07-03T09:48:22;1.05;;;0.95;;
7493;SDS011;3788;49.902;8.590;2022-07-03T09:50:49;1.13;;;0.95;;
7493;SDS011;3788;49.902;8.590;2022-07-03T09:53:42;1.08;;;1.00;;
7493;SDS011;3788;49.902;8.590;2022-07-03T09:56:10;0.73;;;0.73;;
7493;SDS011;3788;49.902;8.590;2022-07-03T09:58:39;1.05;;;0.95;;
7493;SDS011;3788;49.902;8.590;2022-07-03T10:01:15;1.40;;;0.90;;
7493;SDS011;3788;49.902;8.590;2022-07-03T10:03:42;0.90;;;0.90;;
7493;SDS011;3788;49.902;8.590;2022-07-03T10:06:09;1.10;;;1.00;;
7493;SDS011;3788;49.902;8.590;2022-07-03T10:08:36;1.02;;;1.02;;
7493;SDS011;3788;49.902;8.590;2022-07-03T10:11:03;1.08;;;1.00;;
7493;SDS011;3788;49.902;8.590;2022-07-03T10:13:31;0.95;;;0.95;;
7493;SDS011;3788;49.902;8.590;2022-07-03T10:16:03;1.33;;;1.23;;
7493;SDS011;3788;49.902;8.590;2022-07-03T10:18:32;1.25;;;0.90;;
7493;SDS011;3788;49.902;8.590;2022-07-03T10:21:01;1.00;;;1.00;;
7493;SDS011;3788;49.902;8.590;2022-07-03T10:23:32;1.00;;;1.00;;
7493;SDS011;3788;49.902;8.590;2022-07-03T10:25:59;1.42;;;1.15;;
7493;SDS011;3788;49.902;8.590;2022-07-03T10:28:26;1.30;;;0.93;;
7493;SDS011;3788;49.902;8.590;2022-07-03T10:30:53;0.90;;;0.90;;
7493;SDS011;3788;49.902;8.590;2022-07-03T10:33:22;1.92;;;0.93;;
7493;SDS011;3788;49.902;8.590;2022-07-03T10:35:50;1.65;;;1.10;;
7493;SDS011;3788;49.902;8.590;2022-07-03T10:38:22;0.90;;;0.90;;
7493;SDS011;3788;49.902;8.590;2022-07-03T10:41:02;1.95;;;1.00;;
7493;SDS011;3788;49.902;8.590;2022-07-03T10:43:51;1.13;;;1.00;;
7493;SDS011;3788;49.902;8.590;2022-07-03T10:46:36;2.03;;;1.23;;
7493;SDS011;3788;49.902;8.590;2022-07-03T10:49:05;1.80;;;1.25;;
7493;SDS011;3788;49.902;8.590;2022-07-03T10:51:51;1.00;;;1.00;;
7493;SDS011;3788;49.902;8.590;2022-07-03T10:54:19;1.00;;;1.00;;
7493;SDS011;3788;49.902;8.590;2022-07-03T11:02:26;2.00;;;1.38;;
7493;SDS011;3788;49.902;8.590;2022-07-03T11:05:08;2.70;;;1.40;;
7493;SDS011;3788;49.902;8.590;2022-07-03T11:08:04;1.00;;;1.00;;
7493;SDS011;3788;49.902;8.590;2022-07-03T11:10:32;1.30;;;1.13;;
7493;SDS011;3788;49.902;8.590;2022-07-03T11:13:07;1.20;;;1.10;;
7493;SDS011;3788;49.902;8.590;2022-07-03T11:15:41;1.00;;;1.00;;
7493;SDS011;3788;49.902;8.590;2022-07-03T11:18:12;1.90;;;1.40;;
7493;SDS011;3788;49.902;8.590;2022-07-03T11:24:07;0.90;;;0.90;;
7493;SDS011;3788;49.902;8.590;2022-07-03T11:26:43;1.13;;;0.80;;
7493;SDS011;3788;49.902;8.590;2022-07-03T11:29:26;0.80;;;0.80;;
7493;SDS011;3788;49.902;8.590;2022-07-03T11:31:54;0.80;;;0.80;;
7493;SDS011;3788;49.902;8.590;2022-07-03T11:34:20;1.30;;;0.60;;
7493;SDS011;3788;49.902;8.590;2022-07-03T11:36:47;1.50;;;0.60;;
7493;SDS011;3788;49.902;8.590;2022-07-03T11:39:15;1.50;;;0.97;;
7493;SDS011;3788;49.902;8.590;2022-07-03T11:41:46;2.50;;;1.00;;
7493;SDS011;3788;49.902;8.590;2022-07-03T11:44:20;1.40;;;0.53;;
7493;SDS011;3788;49.902;8.590;2022-07-03T11:46:47;1.10;;;0.70;;
7493;SDS011;3788;49.902;8.590;2022-07-03T11:49:17;1.40;;;0.70;;
7493;SDS011;3788;49.902;8.590;2022-07-03T11:51:53;0.87;;;0.87;;
7493;SDS011;3788;49.902;8.590;2022-07-03T11:54:23;0.70;;;0.70;;
7493;SDS011;3788;49.902;8.590;2022-07-03T11:56:50;0.60;;;0.60;;
7493;SDS011;3788;49.902;8.590;2022-07-03T11:59:17;0.60;;;0.50;;
7493;SDS011;3788;49.902;8.590;2022-07-03T12:01:44;1.13;;;0.80;;
7493;SDS011;3788;49.902;8.590;2022-07-03T12:04:12;0.77;;;0.77;;
7493;SDS011;3788;49.902;8.590;2022-07-03T12:06:41;0.87;;;0.87;;
7493;SDS011;3788;49.902;8.590;2022-07-03T12:09:13;0.90;;;0.70;;
7493;SDS011;3788;49.902;8.590;2022-07-03T12:11:44;0.70;;;0.70;;
7493;SDS011;3788;49.902;8.590;2022-07-03T12:14:32;1.57;;;0.70;;
7493;SDS011;3788;49.902;8.590;2022-07-03T12:17:07;0.60;;;0.60;;
7493;SDS011;3788;49.902;8.590;2022-07-03T12:19:37;1.27;;;0.70;;
7493;SDS011;3788;49.902;8.590;2022-07-03T12:22:10;1.70;;;0.70;;
7493;SDS011;3788;49.902;8.590;2022-07-03T12:24:37;1.07;;;0.70;;
7493;SDS011;3788;49.902;8.590;2022-07-03T12:27:06;0.60;;;0.60;;
7493;SDS011;3788;49.902;8.590;2022-07-03T12:29:33;0.70;;;0.70;;
7493;SDS011;3788;49.902;8.590;2022-07-03T12:32:00;0.70;;;0.70;;
7493;SDS011;3788;49.902;8.590;2022-07-03T12:34:34;0.80;;;0.77;;
7493;SDS011;3788;49.902;8.590;2022-07-03T12:37:03;0.80;;;0.80;;
7493;SDS011;3788;49.902;8.590;2022-07-03T12:39:43;0.70;;;0.53;;
7493;SDS011;3788;49.902;8.590;2022-07-03T12:42:15;1.40;;;0.70;;
7493;SDS011;3788;49.902;8.590;2022-07-03T12:44:42;0.70;;;0.70;;
7493;SDS011;3788;49.902;8.590;2022-07-03T12:47:20;1.30;;;0.70;;
7493;SDS011;3788;49.902;8.590;2022-07-03T12:49:53;0.73;;;0.73;;
7493;SDS011;3788;49.902;8.590;2022-07-03T12:52:21;2.60;;;0.60;;
7493;SDS011;3788;49.902;8.590;2022-07-03T12:54:48;1.30;;;0.80;;
7493;SDS011;3788;49.902;8.590;2022-07-03T12:57:16;0.87;;;0.67;;
7493;SDS011;3788;49.902;8.590;2022-07-03T13:00:01;0.73;;;0.73;;
7493;SDS011;3788;49.902;8.590;2022-07-03T13:02:29;0.60;;;0.60;;
7493;SDS011;3788;49.902;8.590;2022-07-03T13:04:57;0.80;;;0.80;;
7493;SDS011;3788;49.902;8.590;2022-07-03T13:07:27;0.70;;;0.70;;
7493;SDS011;3788;49.902;8.590;2022-07-03T13:09:54;1.47;;;0.70;;
7493;SDS011;3788;49.902;8.590;2022-07-03T13:12:22;1.83;;;1.00;;
7493;SDS011;3788;49.902;8.590;2022-07-03T13:14:56;0.83;;;0.83;;
7493;SDS011;3788;49.902;8.590;2022-07-03T13:17:23;0.80;;;0.80;;
7493;SDS011;3788;49.902;8.590;2022-07-03T13:19:50;1.57;;;0.90;;
7493;SDS011;3788;49.902;8.590;2022-07-03T13:22:16;1.13;;;0.90;;
7493;SDS011;3788;49.902;8.590;2022-07-03T13:24:43;0.70;;;0.70;;
7493;SDS011;3788;49.902;8.590;2022-07-03T13:27:09;0.67;;;0.60;;
7493;SDS011;3788;49.902;8.590;2022-07-03T13:29:38;1.13;;;0.80;;
7493;SDS011;3788;49.902;8.590;2022-07-03T13:32:05;2.43;;;0.70;;
7493;SDS011;3788;49.902;8.590;2022-07-03T13:34:32;1.27;;;0.80;;
7493;SDS011;3788;49.902;8.590;2022-07-03T13:36:59;0.97;;;0.93;;
7493;SDS011;3788;49.902;8.590;2022-07-03T13:39:27;1.40;;;0.80;;
7493;SDS011;3788;49.902;8.590;2022-07-03T13:41:53;0.73;;;0.73;;
7493;SDS011;3788;49.902;8.590;2022-07-03T13:44:20;1.07;;;0.90;;
7493;SDS011;3788;49.902;8.590;2022-07-03T13:46:49;0.93;;;0.93;;
7493;SDS011;3788;49.902;8.590;2022-07-03T13:49:15;2.10;;;0.80;;
7493;SDS011;3788;49.902;8.590;2022-07-03T13:51:42;1.50;;;1.00;;
7493;SDS011;3788;49.902;8.590;2022-07-03T13:54:09;1.00;;;0.90;;
7493;SDS011;3788;49.902;8.590;2022-07-03T13:56:36;2.87;;;0.80;;
7493;SDS011;3788;49.902;8.590;2022-07-03T13:59:02;0.70;;;0.70;;
7493;SDS011;3788;49.902;8.590;2022-07-03T14:01:29;0.80;;;0.80;;
7493;SDS011;3788;49.902;8.590;2022-07-03T14:03:57;0.60;;;0.60;;
7493;SDS011;3788;49.902;8.590;2022-07-03T14:06:24;0.73;;;0.73;;
7493;SDS011;3788;49.902;8.590;2022-07-03T14:08:51;1.73;;;0.70;;
7493;SDS011;3788;49.902;8.590;2022-07-03T14:11:17;1.53;;;0.80;;
7493;SDS011;3788;49.902;8.590;2022-07-03T14:13:44;1.77;;;0.93;;
7493;SDS011;3788;49.902;8.590;2022-07-03T14:16:10;0.70;;;0.70;;
7493;SDS011;3788;49.902;8.590;2022-07-03T14:18:37;1.40;;;0.80;;
7493;SDS011;3788;49.902;8.590;2022-07-03T14:21:06;0.77;;;0.77;;
7493;SDS011;3788;49.902;8.590;2022-07-03T14:23:32;1.27;;;0.90;;
7493;SDS011;3788;49.902;8.590;2022-07-03T14:25:59;0.60;;;0.60;;
7493;SDS011;3788;49.902;8.590;2022-07-03T14:28:26;0.87;;;0.80;;
7493;SDS011;3788;49.902;8.590;2022-07-03T14:31:10;1.40;;;0.90;;
7493;SDS011;3788;49.902;8.590;2022-07-03T14:33:56;1.27;;;0.93;;
7493;SDS011;3788;49.902;8.590;2022-07-03T14:36:24;1.30;;;0.83;;
7493;SDS011;3788;49.902;8.590;2022-07-03T14:38:51;1.27;;;0.80;;
7493;SDS011;3788;49.902;8.590;2022-07-03T14:41:17;1.87;;;0.77;;
7493;SDS011;3788;49.902;8.590;2022-07-03T14:43:44;0.70;;;0.70;;
7493;SDS011;3788;49.902;8.590;2022-07-03T14:46:11;0.60;;;0.60;;
7493;SDS011;3788;49.902;8.590;2022-07-03T14:48:37;0.70;;;0.70;;
7493;SDS011;3788;49.902;8.590;2022-07-03T14:51:04;0.93;;;0.70;;
7493;SDS011;3788;49.902;8.590;2022-07-03T14:53:32;0.60;;;0.60;;
7493;SDS011;3788;49.902;8.590;2022-07-03T14:55:58;0.63;;;0.60;;
7493;SDS011;3788;49.902;8.590;2022-07-03T14:58:26;0.80;;;0.80;;
7493;SDS011;3788;49.902;8.590;2022-07-03T15:00:54;0.93;;;0.93;;
7493;SDS011;3788;49.902;8.590;2022-07-03T15:03:27;1.73;;;1.00;;
7493;SDS011;3788;49.902;8.590;2022-07-03T15:05:55;1.87;;;0.93;;
7493;SDS011;3788;49.902;8.590;2022-07-03T15:08:29;1.80;;;0.80;;
7493;SDS011;3788;49.902;8.590;2022-07-03T15:11:10;0.90;;;0.70;;
7493;SDS011;3788;49.902;8.590;2022-07-03T15:14:00;0.77;;;0.77;;
7493;SDS011;3788;49.902;8.590;2022-07-03T15:16:30;1.17;;;1.10;;
7493;SDS011;3788;49.902;8.590;2022-07-03T15:18:58;1.00;;;0.80;;
7493;SDS011;3788;49.902;8.590;2022-07-03T15:21:26;2.73;;;0.77;;
7493;SDS011;3788;49.902;8.590;2022-07-03T15:23:58;0.60;;;0.60;;
7493;SDS011;3788;49.902;8.590;2022-07-03T15:26:28;0.97;;;0.80;;
7493;SDS011;3788;49.902;8.590;2022-07-03T15:28:55;0.87;;;0.70;;
7493;SDS011;3788;49.902;8.590;2022-07-03T15:31:24;0.60;;;0.60;;
7493;SDS011;3788;49.902;8.590;2022-07-03T15:33:52;1.10;;;0.70;;
7493;SDS011;3788;49.902;8.590;2022-07-03T15:36:18;0.93;;;0.70;;
7493;SDS011;3788;49.902;8.590;2022-07-03T15:38:51;0.73;;;0.73;;